»·PEaware :: N925DM KEGE-KBUF

N925DM :: KEGE-KBUF

FLIGHT INFORMATION

Flight Status: Arrived
Operator: Privately registered:
United States
More flights under this callsign
Pilot: Kenny J. (11300)
Aircraft: GATES LEARJET LEARJET 35/36
(LJ35)
More flights by this aircraft type
Origin: KEGE Eagle Co Regl
United States
Destination: KBUF Buffalo Niagara Intl
United States
More flights between these airports :: More routes between these airports
Route: BUF DCT YQO DCT PMM DCT DBQ J100 OBH DCT GLL DCT RLG V8 UVTUH V591 SXW
File this flight plan on PilotEdge
Remarks:
Altitude:
(Current/Filed)
35,000ft
Speed:
(Current/Filed)
300kts
Departed: 27-Sep-16 01:08 AM
Arrived: 27-Sep-16 04:51 AM
Distance/Time
Traveled:
1280nm/3:43
Distance/Time
To Go:
Arrived

Flight Plot

Page will automatically refresh every two minutes.


Map Options




Map Legend


Flown Route
Filed Route
Departure Airport
Arrival Airport
Navaid (VOR, NDB)
Fix

Horizontal Profiles

Position Reports

Time Latitude Longitude Heading Altitude Ground
Speed
27-Sep-16 00:52 39.640784 -106.903530 260 6518ft 0kts
27-Sep-16 00:53 39.640784 -106.903530 260 6518ft 0kts
27-Sep-16 00:54 39.640784 -106.903530 260 6518ft 0kts
27-Sep-16 00:55 39.640784 -106.903530 260 6518ft 0kts
27-Sep-16 00:56 39.640784 -106.903530 260 6518ft 0kts
27-Sep-16 00:57 39.640784 -106.903530 260 6518ft 0kts
27-Sep-16 00:58 39.640784 -106.903530 260 6518ft 0kts
27-Sep-16 00:59 39.640784 -106.903533 260 6518ft 0kts
27-Sep-16 01:00 39.640784 -106.903535 260 6518ft 0kts
27-Sep-16 01:01 39.640639 -106.903640 159 6518ft 4kts
27-Sep-16 01:02 39.642469 -106.903693 352 6518ft 11kts
27-Sep-16 01:03 39.643966 -106.904885 260 6518ft 0kts
27-Sep-16 01:04 39.643062 -106.912606 262 6518ft 103kts
27-Sep-16 01:05 39.637226 -106.971435 262 8194ft 226kts
27-Sep-16 01:06 39.662914 -107.036248 331 11200ft 274kts
27-Sep-16 01:07 39.734409 -107.067479 6 14794ft 277kts
27-Sep-16 01:08 39.793538 -107.009426 63 17880ft 284kts
27-Sep-16 01:09 39.830227 -106.911326 62 19778ft 313kts
27-Sep-16 01:10 39.868811 -106.807234 62 21840ft 323kts
27-Sep-16 01:11 39.908289 -106.700095 61 23651ft 331kts
27-Sep-16 01:12 39.948688 -106.590032 61 25226ft 340kts
27-Sep-16 01:13 39.989850 -106.477460 61 26638ft 346kts
27-Sep-16 01:14 40.025588 -106.358693 67 27863ft 355kts
27-Sep-16 01:15 40.059142 -106.236393 67 28988ft 361kts
27-Sep-16 01:16 40.093156 -106.111611 67 30028ft 366kts
27-Sep-16 01:17 40.127470 -105.985072 67 30983ft 371kts
27-Sep-16 01:18 40.162060 -105.856869 67 31824ft 375kts
27-Sep-16 01:19 40.196857 -105.727227 67 32580ft 379kts
27-Sep-16 01:20 40.231902 -105.595976 67 33235ft 383kts
27-Sep-16 01:21 40.267189 -105.463118 67 33822ft 387kts
27-Sep-16 01:22 40.302573 -105.329171 67 34329ft 392kts
27-Sep-16 01:23 40.338297 -105.193198 66 34785ft 396kts
27-Sep-16 01:24 40.374224 -105.055683 66 35199ft 400kts
27-Sep-16 01:25 40.410438 -104.916280 66 35597ft 403kts
27-Sep-16 01:26 40.446627 -104.776172 66 35949ft 406kts
27-Sep-16 01:28 40.482792 -104.635338 66 36272ft 409kts
27-Sep-16 01:29 40.514256 -104.491208 72 36563ft 414kts
27-Sep-16 01:30 40.539461 -104.341879 73 36651ft 421kts
27-Sep-16 01:31 40.564184 -104.193680 73 37316ft 414kts
27-Sep-16 01:32 40.588939 -104.044235 73 37330ft 423kts
27-Sep-16 01:33 40.613991 -103.891502 73 37326ft 426kts
27-Sep-16 01:34 40.638702 -103.739508 73 37316ft 422kts
27-Sep-16 01:35 40.663061 -103.588405 73 37303ft 419kts
27-Sep-16 01:36 40.687092 -103.438021 73 37296ft 418kts
27-Sep-16 01:37 40.710846 -103.288037 73 37291ft 416kts
27-Sep-16 01:38 40.734259 -103.138886 73 37291ft 415kts
27-Sep-16 01:39 40.757526 -102.989323 73 37294ft 415kts
27-Sep-16 01:40 40.780569 -102.839851 73 37291ft 415kts
27-Sep-16 01:41 40.803364 -102.690630 73 37288ft 415kts
27-Sep-16 01:42 40.826119 -102.540296 73 37282ft 415kts
27-Sep-16 01:43 40.848617 -102.390263 73 37277ft 416kts
27-Sep-16 01:43 40.867193 -102.265307 73 37274ft 416kts
27-Sep-16 01:45 40.893048 -102.089738 73 37270ft 416kts
27-Sep-16 01:45 40.911374 -101.964098 73 37267ft 417kts
27-Sep-16 01:46 40.933151 -101.813477 73 37263ft 418kts
27-Sep-16 01:47 40.954890 -101.661635 73 37259ft 418kts
27-Sep-16 01:48 40.976398 -101.509908 73 37256ft 419kts
27-Sep-16 01:49 40.997746 -101.357802 73 37253ft 419kts
27-Sep-16 01:50 41.018828 -101.206069 74 37249ft 420kts
27-Sep-16 01:51 41.039800 -101.053580 74 37244ft 420kts
27-Sep-16 01:52 41.060602 -100.900765 74 37241ft 421kts
27-Sep-16 01:53 41.081154 -100.748194 74 37239ft 421kts
27-Sep-16 01:54 41.101590 -100.594888 74 37238ft 421kts
27-Sep-16 01:55 41.121914 -100.440784 74 37235ft 422kts
27-Sep-16 01:56 41.141901 -100.287592 74 37227ft 422kts
27-Sep-16 01:57 41.161858 -100.132946 74 37218ft 423kts
27-Sep-16 01:58 41.181551 -99.978648 74 37209ft 423kts
27-Sep-16 01:59 41.200987 -99.824676 74 37202ft 424kts
27-Sep-16 02:00 41.220300 -99.669926 74 37194ft 424kts
27-Sep-16 02:01 41.239441 -99.514799 74 37187ft 425kts
27-Sep-16 02:02 41.258398 -99.359374 74 37184ft 425kts
27-Sep-16 02:03 41.277149 -99.203828 74 37179ft 426kts
27-Sep-16 02:04 41.295662 -99.048419 74 37174ft 426kts
27-Sep-16 02:05 41.314045 -98.892250 74 37162ft 427kts
27-Sep-16 02:06 41.332243 -98.735746 74 37159ft 427kts
27-Sep-16 02:07 41.350288 -98.578637 74 37158ft 427kts
27-Sep-16 02:08 41.368013 -98.422373 74 37157ft 427kts
27-Sep-16 02:09 41.388734 -98.267210 69 37156ft 423kts
27-Sep-16 02:10 41.415865 -98.114171 70 37154ft 424kts
27-Sep-16 02:11 41.441777 -97.960467 70 37150ft 424kts
27-Sep-16 02:12 41.467405 -97.805906 70 37145ft 425kts
27-Sep-16 02:13 41.492649 -97.652061 70 37142ft 425kts
27-Sep-16 02:14 41.517767 -97.497581 70 37139ft 425kts
27-Sep-16 02:15 41.542612 -97.343373 70 37138ft 426kts
27-Sep-16 02:16 41.567346 -97.188451 71 37137ft 426kts
27-Sep-16 02:17 41.591918 -97.033105 71 37135ft 426kts
27-Sep-16 02:18 41.616307 -96.877471 71 37130ft 427kts
27-Sep-16 02:19 41.640572 -96.721151 71 37127ft 427kts
27-Sep-16 02:20 41.664570 -96.565073 71 37124ft 428kts
27-Sep-16 02:21 41.688302 -96.409233 71 37118ft 428kts
27-Sep-16 02:22 41.711850 -96.253091 71 37111ft 428kts
27-Sep-16 02:23 41.735270 -96.096274 71 37109ft 429kts
27-Sep-16 02:24 41.758479 -95.939320 71 37109ft 428kts
27-Sep-16 02:25 41.781475 -95.782248 71 37106ft 429kts
27-Sep-16 02:27 41.804330 -95.624546 71 37109ft 429kts
27-Sep-16 02:28 41.826856 -95.467528 71 37103ft 430kts
27-Sep-16 02:29 41.849370 -95.308967 71 37097ft 431kts
27-Sep-16 02:30 41.871558 -95.151122 71 37099ft 432kts
27-Sep-16 02:31 41.893651 -94.992257 72 37099ft 433kts
27-Sep-16 02:32 41.915560 -94.833031 72 37088ft 435kts
27-Sep-16 02:33 41.937376 -94.672740 72 37082ft 436kts
27-Sep-16 02:34 41.959129 -94.511139 71 37081ft 438kts
27-Sep-16 02:35 41.980566 -94.350098 71 37078ft 439kts
27-Sep-16 02:36 42.001838 -94.188491 71 37074ft 440kts
27-Sep-16 02:37 42.023082 -94.025226 71 37059ft 441kts
27-Sep-16 02:38 42.044072 -93.862019 72 37049ft 442kts
27-Sep-16 02:39 42.064774 -93.699136 72 37048ft 442kts
27-Sep-16 02:40 42.085335 -93.535435 72 37046ft 443kts
27-Sep-16 02:41 42.105688 -93.371357 72 37043ft 443kts
27-Sep-16 02:42 42.125824 -93.206922 72 37031ft 445kts
27-Sep-16 02:42 42.142421 -93.069871 72 37022ft 446kts
27-Sep-16 02:43 42.162259 -92.904156 72 37019ft 447kts
27-Sep-16 02:44 42.181965 -92.737423 72 37019ft 449kts
27-Sep-16 02:45 42.201448 -92.570432 72 37013ft 451kts
27-Sep-16 02:46 42.220786 -92.402461 73 37004ft 453kts
27-Sep-16 02:47 42.239934 -92.234025 73 36996ft 455kts
27-Sep-16 02:48 42.258949 -92.064356 73 36998ft 457kts
27-Sep-16 02:49 42.277772 -91.894101 73 36996ft 458kts
27-Sep-16 02:50 42.296407 -91.723130 73 36993ft 459kts
27-Sep-16 02:51 42.314756 -91.552349 74 36982ft 460kts
27-Sep-16 02:52 42.332997 -91.380072 74 36974ft 461kts
27-Sep-16 02:53 42.350878 -91.208681 74 36970ft 461kts
27-Sep-16 02:54 42.368568 -91.036569 75 36966ft 461kts
27-Sep-16 02:55 42.386029 -90.864053 75 36961ft 462kts
27-Sep-16 02:56 42.403137 -90.691945 76 36959ft 463kts
27-Sep-16 02:57 42.408839 -90.515403 82 36956ft 468kts
27-Sep-16 02:58 42.413707 -90.338703 82 36949ft 469kts
27-Sep-16 02:59 42.418913 -90.161624 82 36947ft 470kts
27-Sep-16 03:00 42.423962 -89.984137 82 36939ft 472kts
27-Sep-16 03:01 42.428771 -89.806018 82 36932ft 473kts
27-Sep-16 03:02 42.433312 -89.627589 83 36929ft 473kts
27-Sep-16 03:03 42.437549 -89.450346 83 36925ft 473kts
27-Sep-16 03:04 42.441548 -89.271398 84 36923ft 472kts
27-Sep-16 03:05 42.445248 -89.093401 84 36915ft 472kts
27-Sep-16 03:06 42.448670 -88.915530 84 36907ft 471kts
27-Sep-16 03:07 42.451804 -88.738390 85 36908ft 471kts
27-Sep-16 03:08 42.454679 -88.560175 85 36900ft 471kts
27-Sep-16 03:09 42.457268 -88.382663 85 36892ft 471kts
27-Sep-16 03:10 42.459581 -88.205193 85 36885ft 472kts
27-Sep-16 03:11 42.461626 -88.027066 86 36885ft 472kts
27-Sep-16 03:12 42.463395 -87.848795 86 36887ft 473kts
27-Sep-16 03:13 42.464888 -87.670358 86 36886ft 473kts
27-Sep-16 03:14 42.466100 -87.492485 87 36884ft 473kts
27-Sep-16 03:15 42.467040 -87.313565 87 36881ft 472kts
27-Sep-16 03:16 42.467696 -87.136612 87 36875ft 472kts
27-Sep-16 03:17 42.468080 -86.958631 87 36869ft 471kts
27-Sep-16 03:18 42.468113 -86.932042 87 36868ft 471kts
27-Sep-16 03:19 42.468113 -86.932042 87 36868ft 471kts
27-Sep-16 03:20 42.468113 -86.932042 87 36868ft 471kts
27-Sep-16 03:21 42.468113 -86.932042 87 36868ft 471kts
27-Sep-16 03:22 42.468113 -86.932042 87 36868ft 471kts
27-Sep-16 03:23 42.468113 -86.932042 87 36868ft 471kts
27-Sep-16 03:24 42.468113 -86.932042 87 36868ft 471kts
27-Sep-16 03:26 42.468113 -86.932042 87 36868ft 471kts
27-Sep-16 03:27 42.468113 -86.932042 87 36868ft 471kts
27-Sep-16 03:28 42.468113 -86.932042 87 36868ft 471kts
27-Sep-16 03:29 42.468113 -86.932042 87 36868ft 471kts
27-Sep-16 03:30 42.468113 -86.932042 87 36868ft 471kts
27-Sep-16 03:31 42.468113 -86.932042 87 36868ft 471kts
27-Sep-16 03:32 42.468113 -86.932042 87 36868ft 471kts
27-Sep-16 03:33 42.468113 -86.932042 87 36868ft 471kts
27-Sep-16 03:34 42.468113 -86.932042 87 36868ft 471kts
27-Sep-16 03:35 42.468113 -86.932042 87 36868ft 471kts
27-Sep-16 03:36 42.468113 -86.932042 87 36868ft 471kts
27-Sep-16 03:37 42.468113 -86.932042 87 36868ft 471kts
27-Sep-16 03:38 42.468113 -86.932042 87 36868ft 471kts
27-Sep-16 03:39 42.468113 -86.932042 87 36868ft 471kts
27-Sep-16 03:40 42.468113 -86.932042 87 36868ft 471kts
27-Sep-16 03:40 42.468113 -86.932042 87 36868ft 471kts
27-Sep-16 03:42 42.468187 -86.796077 88 36869ft 471kts
27-Sep-16 03:42 42.468086 -86.647748 88 36870ft 471kts
27-Sep-16 03:43 42.467714 -86.470484 88 36857ft 472kts
27-Sep-16 03:44 42.467062 -86.292326 89 36853ft 472kts
27-Sep-16 03:45 42.466502 -86.114424 86 36846ft 473kts
27-Sep-16 03:46 42.483372 -85.937359 80 36846ft 472kts
27-Sep-16 03:47 42.500999 -85.761313 80 36850ft 472kts
27-Sep-16 03:48 42.518518 -85.584657 80 36855ft 472kts
27-Sep-16 03:49 42.535783 -85.407916 80 36860ft 472kts
27-Sep-16 03:50 42.552767 -85.231193 81 36859ft 472kts
27-Sep-16 03:51 42.569490 -85.054253 81 36851ft 471kts
27-Sep-16 03:52 42.585929 -84.877345 81 36839ft 472kts
27-Sep-16 03:53 42.602037 -84.700982 82 36840ft 472kts
27-Sep-16 03:54 42.617949 -84.523683 82 36851ft 472kts
27-Sep-16 03:55 42.633602 -84.346096 82 36857ft 473kts
27-Sep-16 03:56 42.648996 -84.168253 82 36855ft 474kts
27-Sep-16 03:57 42.664092 -83.990569 82 36857ft 474kts
27-Sep-16 03:58 42.678982 -83.811967 83 36856ft 475kts
27-Sep-16 03:59 42.693611 -83.633038 83 36855ft 475kts
27-Sep-16 04:00 42.707962 -83.454018 84 36858ft 475kts
27-Sep-16 04:01 42.721988 -83.275512 84 36863ft 475kts
27-Sep-16 04:02 42.735764 -83.096525 84 36873ft 475kts
27-Sep-16 04:03 42.749266 -82.917402 85 36860ft 475kts
27-Sep-16 04:04 42.762441 -82.738837 85 36853ft 475kts
27-Sep-16 04:05 42.775383 -82.559548 85 36853ft 475kts
27-Sep-16 04:06 42.788096 -82.379452 85 36852ft 475kts
27-Sep-16 04:07 42.800487 -82.199850 86 36852ft 476kts
27-Sep-16 04:08 42.812568 -82.020594 86 36853ft 476kts
27-Sep-16 04:09 42.824419 -81.840526 87 36853ft 476kts
27-Sep-16 04:10 42.835987 -81.660330 87 36853ft 476kts
27-Sep-16 04:11 42.847275 -81.480046 87 36853ft 476kts
27-Sep-16 04:12 42.857980 -81.305484 88 36803ft 446kts
27-Sep-16 04:13 42.867648 -81.142858 88 34354ft 416kts
27-Sep-16 04:14 42.876579 -80.988983 88 31843ft 396kts
27-Sep-16 04:15 42.884959 -80.841323 89 29331ft 382kts
27-Sep-16 04:16 42.892871 -80.698766 89 26827ft 370kts
27-Sep-16 04:17 42.900323 -80.561499 90 24339ft 359kts
27-Sep-16 04:18 42.907423 -80.427754 90 21877ft 346kts
27-Sep-16 04:19 42.914140 -80.298325 89 19465ft 334kts
27-Sep-16 04:20 42.920454 -80.173968 89 17069ft 323kts
27-Sep-16 04:21 42.926460 -80.053118 88 14665ft 314kts
27-Sep-16 04:22 42.932156 -79.936784 89 12540ft 297kts
27-Sep-16 04:23 42.937457 -79.824966 88 11336ft 293kts
27-Sep-16 04:24 42.942606 -79.714546 88 10135ft 289kts
27-Sep-16 04:25 42.947576 -79.605869 88 8933ft 285kts
27-Sep-16 04:26 42.952402 -79.498030 88 7730ft 281kts
27-Sep-16 04:27 42.957037 -79.392019 88 6524ft 277kts
27-Sep-16 04:28 42.961502 -79.288442 89 5473ft 264kts
27-Sep-16 04:29 42.965597 -79.191138 89 4478ft 252kts
27-Sep-16 04:31 42.969405 -79.098472 89 4013ft 229kts
27-Sep-16 04:32 42.972886 -79.012248 89 4015ft 229kts
27-Sep-16 04:33 42.976253 -78.927484 90 4021ft 218kts
27-Sep-16 04:34 42.979404 -78.846256 90 4030ft 213kts
27-Sep-16 04:35 42.982561 -78.763405 90 4038ft 220kts
27-Sep-16 04:36 42.985721 -78.678942 89 4042ft 224kts
27-Sep-16 04:37 42.988848 -78.594455 90 3632ft 216kts
27-Sep-16 04:38 42.992991 -78.514016 73 2821ft 208kts
27-Sep-16 04:39 43.036972 -78.477804 347 2193ft 190kts
27-Sep-16 04:40 43.074539 -78.517134 297 1991ft 160kts
27-Sep-16 04:41 43.067499 -78.563007 230 1998ft 131kts
27-Sep-16 04:42 43.051520 -78.585537 222 2009ft 124kts
27-Sep-16 04:43 43.027898 -78.614779 223 1996ft 109kts
27-Sep-16 04:44 43.006629 -78.642500 224 1993ft 101kts
27-Sep-16 04:45 42.986552 -78.668964 224 1690ft 101kts
27-Sep-16 04:45 42.970048 -78.690617 224 1147ft 99kts
27-Sep-16 04:46 42.950908 -78.715726 223 778ft 92kts
27-Sep-16 04:47 42.939922 -78.729286 98 727ft 7kts
27-Sep-16 04:49 42.940455 -78.727485 43 727ft 0kts

Navigation Log

Ident Type
Flight plan parsing failed, navigation log unavailable